Time;durP1;ratioP1;P1;durP2;ratioP2;P2;SDS_P1;SDS_P2;PMS_P1;PMS_P2;Temp;Humidity;BMP_temperature;BMP_pressure;BME280_temperature;BME280_humidity;BME280_pressure;Samples;Min_cycle;Max_cycle;Signal;HPM_P1;HPM_P2
2021/03/29 00:00:43;;;;;;;;;;;;;;;;;;;;;
2021/03/29 00:02:01;;;;;;;10.57;4.75;;;;;;;11.82;46.03;102327.47;333611;29;34201;-68
2021/03/29 00:08:46;;;;;;;10.55;4.30;;;;;;;11.67;45.73;102334.88;326182;30;34431;-68
2021/03/29 00:08:58;;;;;;;11.02;4.63;;;;;;;11.67;45.24;102326.94;322755;30;58087;-63
2021/03/29 00:09:09;;;;;;;10.93;4.88;;;;;;;11.67;45.43;102336.69;323690;30;1768;-63
2021/03/29 00:09:20;;;;;;;11.32;5.05;;;;;;;11.64;45.42;102339.41;323738;30;1476;-64
2021/03/29 00:09:34;;;;;;;10.40;5.03;;;;;;;11.64;45.80;102329.69;323684;30;1540;-64
2021/03/29 00:09:46;;;;;;;9.63;5.20;;;;;;;11.66;45.44;102330.53;322463;30;1535;-64
2021/03/29 00:09:57;;;;;;;9.60;5.13;;;;;;;11.70;45.88;102334.84;322307;30;1494;-63
2021/03/29 00:10:09;;;;;;;8.32;4.68;;;;;;;11.71;46.40;102333.91;323527;30;1726;-64
2021/03/29 00:10:21;;;;;;;9.88;4.53;;;;;;;11.70;45.97;102332.19;324876;30;1499;-64
2021/03/29 00:10:32;;;;;;;10.57;4.70;;;;;;;11.67;46.04;102332.25;324826;30;1659;-63
2021/03/29 00:10:45;;;;;;;12.35;4.68;;;;;;;11.64;44.52;102334.97;324866;30;1710;-65
2021/03/29 00:10:57;;;;;;;11.27;4.72;;;;;;;11.67;45.27;102340.19;322377;30;1535;-66
2021/03/29 00:11:09;;;;;;;10.35;4.95;;;;;;;11.66;44.91;102340.22;323672;30;1554;-64
2021/03/29 00:11:22;;;;;;;11.05;4.95;;;;;;;11.64;44.99;102334.97;323618;30;1494;-63
2021/03/29 00:11:34;;;;;;;10.15;4.45;;;;;;;11.65;45.50;102333.19;323679;30;1491;-64
2021/03/29 00:11:46;;;;;;;8.35;4.20;;;;;;;11.67;45.31;102334.03;323644;30;1645;-64
2021/03/29 00:12:00;;;;;;;10.15;4.47;;;;;;;11.65;45.40;102327.91;323675;30;1529;-63
2021/03/29 00:12:13;;;;;;;11.27;4.93;;;;;;;11.62;43.98;102334.16;323754;30;32333;-64
2021/03/29 00:12:24;;;;;;;11.43;5.03;;;;;;;11.60;44.64;102333.31;323418;30;1723;-62
2021/03/29 00:12:36;;;;;;;10.70;5.00;;;;;;;11.60;45.01;102328.03;323611;30;1463;-63
2021/03/29 00:12:49;;;;;;;9.93;4.85;;;;;;;11.63;44.68;102327.94;324610;30;1689;-62
2021/03/29 00:13:01;;;;;;;10.73;4.65;;;;;;;11.60;44.94;102335.97;324883;30;1451;-63
2021/03/29 00:13:13;;;;;;;12.10;4.70;;;;;;;11.58;44.71;102335.16;324591;30;1667;-64
2021/03/29 00:13:25;;;;;;;11.40;4.80;;;;;;;11.53;44.78;102327.31;326129;30;1553;-63
2021/03/29 00:13:35;;;;;;;11.23;4.80;;;;;;;11.51;44.80;102328.25;325943;30;1782;-64
2021/03/29 00:13:48;;;;;;;9.67;4.60;;;;;;;11.52;44.47;102333.50;325918;30;1448;-64
2021/03/29 00:13:59;;;;;;;11.02;4.60;;;;;;;11.52;44.85;102330.00;324858;30;1883;-63
2021/03/29 00:14:11;;;;;;;13.07;4.60;;;;;;;11.52;45.06;102330.00;324789;30;1669;-64
2021/03/29 00:14:23;;;;;;;12.82;4.63;;;;;;;11.58;45.20;102332.50;325827;30;1650;-64
2021/03/29 00:14:34;;;;;;;11.68;4.80;;;;;;;11.59;45.77;102330.72;324738;30;1788;-63
2021/03/29 00:14:46;;;;;;;9.82;4.82;;;;;;;11.57;45.81;102330.75;326024;30;1756;-64
2021/03/29 00:14:57;;;;;;;9.82;4.72;;;;;;;11.58;44.50;102329.84;324787;30;1614;-63
2021/03/29 00:15:12;;;;;;;9.85;4.88;;;;;;;11.56;45.76;102334.31;326082;30;1703;-64
2021/03/29 00:15:26;;;;;;;10.50;4.88;;;;;;;11.56;44.74;102333.44;323725;30;32341;-64
2021/03/29 00:15:39;;;;;;;11.27;4.63;;;;;;;11.52;45.49;102335.28;324316;30;14535;-65
2021/03/29 00:15:52;;;;;;;10.40;4.40;;;;;;;11.52;44.04;102335.28;323639;30;1613;-63
2021/03/29 00:16:04;;;;;;;9.63;4.50;;;;;;;11.52;45.29;102330.00;323510;30;1631;-64
2021/03/29 00:16:15;;;;;;;10.80;4.68;;;;;;;11.51;44.88;102326.50;324763;30;1249;-64
2021/03/29 00:16:27;;;;;;;9.93;4.78;;;;;;;11.53;44.40;102327.31;323506;30;1617;-63
2021/03/29 00:16:40;;;;;;;10.57;4.93;;;;;;;11.55;45.56;102327.28;325971;30;1643;-63
2021/03/29 00:16:52;;;;;;;11.07;5.05;;;;;;;11.57;45.40;102328.13;325989;30;1725;-64
2021/03/29 00:17:03;;;;;;;11.80;4.65;;;;;;;11.57;45.17;102327.22;323673;30;1632;-63
2021/03/29 00:17:14;;;;;;;11.02;4.55;;;;;;;11.53;44.69;102327.31;324858;30;1919;-63
2021/03/29 00:17:25;;;;;;;12.65;4.68;;;;;;;11.53;45.50;102331.75;324544;30;1693;-64
2021/03/29 00:17:35;;;;;;;12.57;4.83;;;;;;;11.53;45.75;102323.81;323517;30;1701;-63
2021/03/29 00:17:46;;;;;;;11.88;4.90;;;;;;;11.54;44.75;102330.84;323670;30;1418;-64
2021/03/29 00:17:58;;;;;;;11.30;5.00;;;;;;;11.53;45.71;102323.81;324711;30;1748;-65
2021/03/29 00:18:10;;;;;;;10.10;4.82;;;;;;;11.51;44.41;102329.16;323606;30;1606;-63
2021/03/29 00:18:21;;;;;;;10.38;4.82;;;;;;;11.52;44.58;102325.56;325823;30;1877;-63
2021/03/29 00:18:32;;;;;;;9.85;4.78;;;;;;;11.57;45.15;102332.53;324822;30;1569;-64
2021/03/29 00:18:43;;;;;;;10.47;4.97;;;;;;;11.55;44.22;102327.28;327232;30;1748;-63
2021/03/29 00:18:53;;;;;;;11.00;4.97;;;;;;;11.56;44.56;102326.38;326060;30;1585;-63
2021/03/29 00:19:08;;;;;;;11.13;4.80;;;;;;;11.55;44.88;102327.28;324887;30;1355;-63
2021/03/29 00:19:19;;;;;;;9.82;4.68;;;;;;;11.53;45.04;102329.09;323561;30;36176;-64
2021/03/29 00:19:32;;;;;;;10.70;4.78;;;;;;;11.53;44.58;102329.97;326075;30;1459;-65
2021/03/29 00:19:43;;;;;;;10.13;4.47;;;;;;;11.52;44.75;102328.22;326033;30;1753;-63
2021/03/29 00:19:54;;;;;;;10.48;4.47;;;;;;;11.53;45.33;102329.97;326069;30;1466;-63
2021/03/29 00:20:13;;;;;;;11.07;4.60;;;;;;;11.46;44.45;102330.19;327153;30;1647;-63
2021/03/29 00:20:29;;;;;;;9.45;4.60;;;;;;;11.48;44.57;102325.69;324123;30;61054;-63
2021/03/29 00:20:46;;;;;;;7.85;4.55;;;;;;;11.50;44.92;102326.53;324013;30;61685;-64
2021/03/29 00:21:02;;;;;;;8.52;4.40;;;;;;;11.51;45.44;102328.25;321853;30;55920;-63
2021/03/29 00:21:13;;;;;;;10.10;4.40;;;;;;;11.50;44.57;102329.19;324370;30;12177;-63
2021/03/29 00:21:24;;;;;;;9.57;4.28;;;;;;;11.47;44.77;102332.78;324791;30;1607;-63
2021/03/29 00:21:36;;;;;;;10.50;4.57;;;;;;;11.45;45.08;102331.94;323543;30;1427;-63
2021/03/29 00:21:47;;;;;;;10.75;4.53;;;;;;;11.42;43.91;102329.38;325995;30;1756;-63
2021/03/29 00:21:58;;;;;;;10.40;4.38;;;;;;;11.40;44.94;102325.88;326006;30;1420;-63
2021/03/29 00:22:09;;;;;;;9.98;4.30;;;;;;;11.43;44.90;102332.88;326026;30;1597;-63
2021/03/29 00:22:20;;;;;;;9.77;4.40;;;;;;;11.45;44.53;102329.28;326008;30;1820;-64
2021/03/29 00:22:31;;;;;;;10.15;4.65;;;;;;;11.43;45.45;102324.94;324866;30;1502;-64
2021/03/29 00:22:42;;;;;;;10.03;4.73;;;;;;;11.46;44.78;102332.81;326033;30;1986;-64
2021/03/29 00:22:55;;;;;;;10.07;4.80;;;;;;;11.43;44.31;102324.94;326026;30;1140;-63
2021/03/29 00:23:07;;;;;;;10.60;4.85;;;;;;;11.44;43.86;102327.53;325660;30;11610;-63
2021/03/29 00:23:18;;;;;;;9.93;4.78;;;;;;;11.44;44.17;102337.25;325990;30;1932;-64
2021/03/29 00:23:29;;;;;;;11.55;4.75;;;;;;;11.31;44.65;102332.28;325991;30;1556;-64
2021/03/29 00:23:40;;;;;;;11.18;4.72;;;;;;;11.27;45.25;102332.41;327146;30;1698;-63
2021/03/29 00:23:51;;;;;;;10.95;4.53;;;;;;;11.23;45.03;102331.59;325998;30;1573;-64
2021/03/29 00:24:05;;;;;;;8.88;4.24;;;;;;;11.17;44.69;102335.25;323547;30;1631;-64
2021/03/29 00:24:16;;;;;;;9.52;4.18;;;;;;;11.14;44.72;102327.41;323006;30;13155;-63
2021/03/29 00:24:27;;;;;;;10.40;4.32;;;;;;;11.22;45.57;102342.22;324864;30;1659;-63
2021/03/29 00:24:39;;;;;;;11.55;4.72;;;;;;;11.26;44.68;102338.59;323627;30;1580;-63
2021/03/29 00:24:50;;;;;;;11.55;4.97;;;;;;;11.26;45.14;102328.88;324735;30;1586;-64
2021/03/29 00:25:01;;;;;;;11.95;4.88;;;;;;;11.30;45.93;102329.69;326015;30;1609;-63
2021/03/29 00:25:21;;;;;;;11.88;5.03;;;;;;;11.37;45.87;102328.59;326078;30;1680;-64
2021/03/29 00:25:33;;;;;;;11.23;4.60;;;;;;;11.42;45.96;102333.81;322854;30;63484;-64
2021/03/29 00:25:44;;;;;;;11.27;4.47;;;;;;;11.44;45.50;102339.91;324574;30;1677;-63
2021/03/29 00:25:54;;;;;;;9.27;4.40;;;;;;;11.45;46.09;102339.00;323646;30;1558;-63
2021/03/29 00:26:06;;;;;;;7.80;4.20;;;;;;;11.44;44.83;102337.25;322312;30;1419;-63
2021/03/29 00:26:17;;;;;;;9.48;4.40;;;;;;;11.43;45.08;102330.22;323568;30;1681;-63
2021/03/29 00:26:28;;;;;;;10.43;4.57;;;;;;;11.45;45.01;102333.72;324726;30;1648;-64
2021/03/29 00:26:39;;;;;;;10.93;4.63;;;;;;;11.43;45.17;102327.59;324636;30;1339;-64
2021/03/29 00:26:50;;;;;;;10.73;4.72;;;;;;;11.47;44.70;102335.44;325980;30;1514;-63
2021/03/29 00:27:02;;;;;;;10.38;4.50;;;;;;;11.51;45.94;102333.56;326048;30;1816;-63
2021/03/29 00:27:14;;;;;;;10.52;4.30;;;;;;;11.50;45.75;102327.41;324818;30;1660;-63
2021/03/29 00:27:25;;;;;;;8.93;4.22;;;;;;;11.50;44.65;102337.97;325952;30;1649;-63
2021/03/29 00:27:36;;;;;;;8.80;4.20;;;;;;;11.47;45.50;102337.19;327132;30;1791;-64
2021/03/29 00:27:47;;;;;;;8.57;4.20;;;;;;;11.47;44.69;102342.47;326013;30;1843;-63
2021/03/29 00:27:58;;;;;;;8.52;4.15;;;;;;;11.44;44.75;102338.13;326044;30;1801;-63
2021/03/29 00:28:09;;;;;;;7.90;4.20;;;;;;;11.47;44.81;102342.47;326009;30;1621;-63
2021/03/29 00:28:19;;;;;;;9.45;4.45;;;;;;;11.48;45.03;102339.78;325843;30;1731;-64
2021/03/29 00:28:30;;;;;;;11.60;4.90;;;;;;;11.50;45.86;102337.97;326027;30;1595;-64
2021/03/29 00:28:40;;;;;;;12.93;4.87;;;;;;;11.48;44.58;102336.28;325947;30;1639;-64
2021/03/29 00:28:51;;;;;;;12.00;4.50;;;;;;;11.47;44.78;102348.66;324698;30;1630;-63
2021/03/29 00:29:01;;;;;;;10.23;4.30;;;;;;;11.50;45.71;102340.63;325941;30;1692;-64
2021/03/29 00:29:12;;;;;;;8.93;4.35;;;;;;;11.49;45.66;102343.31;324847;30;1594;-65
2021/03/29 00:29:23;;;;;;;7.78;4.40;;;;;;;11.51;45.56;102338.84;326042;30;1446;-64
2021/03/29 00:29:33;;;;;;;8.87;4.40;;;;;;;11.48;44.97;102338.94;325794;30;1421;-65
2021/03/29 00:29:44;;;;;;;9.55;4.43;;;;;;;11.47;45.56;102342.47;326008;30;1546;-64
2021/03/29 00:29:54;;;;;;;10.48;4.70;;;;;;;11.44;44.65;102340.78;326081;30;1547;-64
2021/03/29 00:30:39;;;;;;;9.63;4.77;;;;;;;11.43;45.68;102346.09;323688;30;1609;-64
2021/03/29 00:30:50;;;;;;;8.90;4.53;;;;;;;11.42;45.22;102347.03;320469;30;60956;-63
2021/03/29 00:31:04;;;;;;;9.02;4.72;;;;;;;11.46;44.83;102340.75;321358;30;1674;-64
2021/03/29 00:31:15;;;;;;;11.23;4.85;;;;;;;11.48;45.76;102344.22;321354;30;33991;-64
2021/03/29 00:31:25;;;;;;;11.15;4.78;;;;;;;11.51;45.97;102344.13;323363;30;1475;-63
2021/03/29 00:31:36;;;;;;;10.73;4.60;;;;;;;11.48;45.88;102344.22;323639;30;1707;-64
2021/03/29 00:31:47;;;;;;;10.27;4.63;;;;;;;11.46;45.27;102336.31;324824;30;1555;-64
2021/03/29 00:31:59;;;;;;;10.90;4.72;;;;;;;11.47;45.23;102342.47;324736;30;1520;-62
2021/03/29 00:32:10;;;;;;;10.40;4.70;;;;;;;11.45;45.03;102345.16;323500;30;1619;-64
2021/03/29 00:32:21;;;;;;;9.55;4.63;;;;;;;11.45;44.88;102341.66;322276;30;1657;-65
2021/03/29 00:32:32;;;;;;;8.85;4.30;;;;;;;11.43;44.37;102346.09;322396;30;1686;-67
2021/03/29 00:32:43;;;;;;;9.32;4.20;;;;;;;11.34;44.59;102344.56;321271;30;2576;-64
2021/03/29 00:32:54;;;;;;;10.52;4.13;;;;;;;11.31;45.05;102348.16;321253;30;1603;-64
2021/03/29 00:33:06;;;;;;;10.98;4.20;;;;;;;11.28;44.46;102350.88;321290;30;1405;-64
2021/03/29 00:33:18;;;;;;;10.15;4.30;;;;;;;11.28;44.42;102344.69;322291;30;2494;-64
2021/03/29 00:33:29;;;;;;;9.13;4.25;;;;;;;11.30;45.12;102349.06;323610;30;1610;-64
2021/03/29 00:33:44;;;;;;;11.70;4.57;;;;;;;11.35;44.95;102347.16;323681;30;1560;-64
2021/03/29 00:34:51;;;;;;;;;;;;;;;;;;;;;
2021/03/29 00:38:04;;;;;;;9.80;4.32;;;;;;;11.48;44.39;102344.22;322438;30;35568;-67
2021/03/29 00:38:53;;;;;;;5.20;3.22;;;;;;;11.48;45.11;102342.44;354627;27;20258;-64
2021/03/29 00:40:31;;;;;;;10.45;4.40;;;;;;;11.48;45.85;102355.66;346696;28;34352;-63
2021/03/29 00:41:55;;;;;;;8.93;4.10;;;;;;;11.33;43.85;102345.47;339644;29;34202;-65
2021/03/29 00:42:45;;;;;;;11.15;4.18;;;;;;;11.32;44.42;102344.59;337954;29;72489;-63
2021/03/29 00:42:59;;;;;;;10.38;4.15;;;;;;;11.31;44.05;102339.34;337316;29;71461;-63
2021/03/29 00:43:10;;;;;;;7.82;3.90;;;;;;;11.33;44.18;102348.13;338950;29;24837;-62
2021/03/29 00:43:31;;;;;;;8.10;3.83;;;;;;;11.36;45.33;102343.63;340354;28;1258;-64
2021/03/29 00:43:45;;;;;;;9.28;3.98;;;;;;;11.35;44.31;102344.53;341848;28;95756;-63
2021/03/29 00:43:56;;;;;;;9.07;4.15;;;;;;;11.34;44.35;102348.06;344653;28;3944;-63
2021/03/29 00:44:09;;;;;;;8.82;4.18;;;;;;;11.35;45.30;102336.59;344966;28;1400;-62
2021/03/29 00:44:21;;;;;;;8.55;4.20;;;;;;;11.35;45.40;102344.53;344951;28;1243;-62
2021/03/29 00:44:33;;;;;;;8.52;4.10;;;;;;;11.35;45.31;102336.59;343745;28;2374;-63
2021/03/29 00:44:45;;;;;;;10.57;4.18;;;;;;;11.36;44.79;102334.81;345044;28;1144;-63
2021/03/29 00:44:57;;;;;;;12.40;4.30;;;;;;;11.36;45.41;102338.34;346139;28;1111;-64
2021/03/29 00:45:11;;;;;;;11.00;4.20;;;;;;;11.35;45.16;102341.88;346400;28;1042;-63
2021/03/29 00:45:23;;;;;;;10.20;4.18;;;;;;;11.38;44.89;102338.28;345468;28;24839;-64
2021/03/29 00:45:34;;;;;;;9.55;4.10;;;;;;;11.37;45.75;102337.44;346342;28;1333;-62
2021/03/29 00:45:48;;;;;;;9.00;3.83;;;;;;;11.38;45.35;102339.16;345053;28;2069;-63
2021/03/29 00:46:01;;;;;;;8.20;3.83;;;;;;;11.40;45.45;102343.53;346383;28;1077;-63
2021/03/29 00:46:15;;;;;;;8.77;4.00;;;;;;;11.34;43.86;102339.28;345556;28;23151;-63
2021/03/29 00:46:27;;;;;;;9.70;4.00;;;;;;;11.32;44.83;102339.31;346441;28;5219;-63
2021/03/29 00:46:40;;;;;;;10.30;3.90;;;;;;;11.33;43.94;102338.41;347686;28;1045;-64
2021/03/29 00:46:52;;;;;;;10.13;4.03;;;;;;;11.30;45.25;102333.19;347696;28;1013;-63
2021/03/29 00:47:03;;;;;;;9.93;4.00;;;;;;;11.23;44.79;102336.03;347736;28;1220;-62
2021/03/29 00:47:15;;;;;;;10.68;3.90;;;;;;;11.20;44.28;102339.63;347576;28;1049;-63
2021/03/29 00:47:28;;;;;;;10.20;4.13;;;;;;;11.22;44.70;102332.50;347656;28;1149;-64
2021/03/29 00:47:40;;;;;;;10.15;4.25;;;;;;;11.24;44.50;102336.00;347923;28;1220;-64
2021/03/29 00:47:52;;;;;;;9.30;4.32;;;;;;;11.27;44.57;102343.84;349089;28;1189;-63
2021/03/29 00:48:04;;;;;;;9.18;4.30;;;;;;;11.32;45.46;102338.44;349140;28;1032;-63
2021/03/29 00:48:17;;;;;;;7.97;4.25;;;;;;;11.31;45.25;102336.72;347608;28;1130;-63
2021/03/29 00:48:32;;;;;;;8.20;4.10;;;;;;;11.29;45.30;102339.41;346677;28;28402;-64
2021/03/29 00:48:44;;;;;;;10.20;4.03;;;;;;;11.23;44.46;102339.53;347029;28;21396;-63
2021/03/29 00:48:57;;;;;;;9.73;4.03;;;;;;;11.14;43.63;102339.75;349062;28;1278;-63
2021/03/29 00:49:09;;;;;;;9.60;3.78;;;;;;;11.09;44.54;102339.00;347612;28;1211;-66
2021/03/29 00:49:21;;;;;;;8.27;3.65;;;;;;;10.98;44.44;102328.69;347695;28;1259;-62
2021/03/29 00:49:32;;;;;;;8.60;3.72;;;;;;;10.95;45.30;102336.66;347638;28;1137;-63
2021/03/29 00:49:43;;;;;;;9.40;3.85;;;;;;;10.92;44.90;102332.34;347750;28;1153;-64
2021/03/29 00:49:55;;;;;;;9.82;3.90;;;;;;;10.95;45.36;102339.31;347771;28;1113;-63
2021/03/29 00:50:09;;;;;;;9.13;4.00;;;;;;;11.03;45.74;102337.34;347699;28;2021;-63
2021/03/29 00:50:44;;;;;;;10.27;4.00;;;;;;;11.01;45.71;102331.25;346889;28;25407;-62
2021/03/29 00:51:01;;;;;;;8.77;3.53;;;;;;;10.89;44.31;102335.03;345300;28;71104;-63
2021/03/29 00:51:28;;;;;;;8.93;3.30;;;;;;;10.88;45.34;102333.31;346745;28;72084;-65
2021/03/29 00:51:40;;;;;;;10.13;3.90;;;;;;;10.93;45.01;102331.41;346692;28;71444;-63
2021/03/29 00:51:51;;;;;;;8.05;3.80;;;;;;;10.99;45.36;102341.88;349067;28;1093;-62
2021/03/29 00:52:04;;;;;;;7.03;3.83;;;;;;;11.06;44.64;102336.41;349106;28;1205;-64
2021/03/29 00:52:15;;;;;;;8.35;4.30;;;;;;;11.07;45.42;102336.38;349075;28;1173;-63
2021/03/29 00:52:27;;;;;;;9.93;4.40;;;;;;;11.08;45.09;102335.47;347723;28;1030;-63
2021/03/29 00:52:39;;;;;;;9.10;4.10;;;;;;;11.13;45.08;102336.25;347706;28;1077;-63
2021/03/29 00:52:52;;;;;;;9.23;3.95;;;;;;;11.14;45.83;102339.75;347557;28;1098;-63
2021/03/29 00:53:04;;;;;;;9.10;3.90;;;;;;;11.16;45.28;102338.81;347746;28;1099;-65
2021/03/29 00:53:16;;;;;;;9.75;3.80;;;;;;;11.13;44.89;102338.03;347671;28;1331;-64
2021/03/29 00:53:28;;;;;;;9.38;3.80;;;;;;;11.15;44.61;102330.91;347610;28;1161;-63
2021/03/29 00:53:43;;;;;;;9.10;3.72;;;;;;;11.15;45.39;102337.06;347691;28;1232;-64
2021/03/29 00:53:57;;;;;;;9.40;3.75;;;;;;;11.17;45.31;102337.06;346088;28;49094;-63
2021/03/29 00:54:10;;;;;;;8.85;3.53;;;;;;;11.19;45.80;102340.50;346171;28;49400;-64
2021/03/29 00:54:22;;;;;;;9.40;3.70;;;;;;;11.19;45.01;102333.44;348195;28;1156;-64
2021/03/29 00:54:35;;;;;;;9.60;3.85;;;;;;;11.22;45.65;102332.50;348975;28;1125;-64
2021/03/29 00:54:47;;;;;;;10.13;4.20;;;;;;;11.23;45.16;102334.25;348981;28;1033;-62
2021/03/29 00:54:59;;;;;;;10.07;4.07;;;;;;;11.23;45.24;102333.38;347766;28;1164;-63
2021/03/29 00:55:11;;;;;;;9.07;3.58;;;;;;;11.14;44.32;102335.34;346353;28;1129;-62
2021/03/29 00:55:23;;;;;;;8.73;3.40;;;;;;;11.04;44.18;102333.81;346372;28;1122;-64
2021/03/29 00:55:34;;;;;;;7.90;3.45;;;;;;;10.99;45.25;102338.34;346211;28;1051;-64
2021/03/29 00:55:47;;;;;;;6.78;3.50;;;;;;;10.91;44.80;102333.25;346340;28;1179;-62
2021/03/29 00:56:00;;;;;;;7.72;3.60;;;;;;;10.90;44.28;102331.50;345582;28;25090;-63
2021/03/29 00:56:12;;;;;;;8.90;3.72;;;;;;;10.90;44.83;102333.28;346360;28;1114;-63
2021/03/29 00:56:24;;;;;;;8.85;3.42;;;;;;;10.92;44.26;102334.09;346394;28;1205;-65
2021/03/29 00:56:36;;;;;;;8.63;3.42;;;;;;;10.96;44.93;102330.47;346171;28;1065;-63
2021/03/29 00:56:47;;;;;;;8.48;3.65;;;;;;;11.01;44.97;102333.88;346247;28;1074;-62
2021/03/29 00:57:01;;;;;;;10.20;3.90;;;;;;;10.98;44.52;102334.84;347483;28;1017;-63
2021/03/29 00:57:13;;;;;;;10.60;3.75;;;;;;;10.93;45.37;102334.06;348331;28;25528;-63
2021/03/29 00:57:25;;;;;;;8.27;3.40;;;;;;;10.94;45.26;102335.81;349070;28;1081;-63
2021/03/29 00:57:38;;;;;;;8.50;3.53;;;;;;;10.97;45.45;102338.38;349033;28;1041;-65
2021/03/29 00:57:51;;;;;;;9.30;3.75;;;;;;;11.00;44.51;102330.41;346778;28;25377;-62
2021/03/29 00:58:02;;;;;;;8.82;3.78;;;;;;;10.94;44.96;102332.31;346323;28;1134;-63
2021/03/29 00:58:15;;;;;;;6.50;3.65;;;;;;;10.96;45.44;102336.66;346400;28;1177;-62
2021/03/29 00:58:28;;;;;;;7.70;3.63;;;;;;;10.95;44.64;102329.63;346277;28;1122;-64
2021/03/29 00:58:40;;;;;;;8.18;3.53;;;;;;;10.98;45.26;102336.63;346331;28;1161;-64
2021/03/29 00:58:53;;;;;;;8.65;3.50;;;;;;;11.00;44.65;102343.63;346211;28;1234;-62
2021/03/29 00:59:07;;;;;;;8.85;3.60;;;;;;;11.05;45.80;102332.91;346349;28;1348;-62
2021/03/29 00:59:21;;;;;;;8.77;3.78;;;;;;;11.08;45.33;102339.91;345444;28;23840;-64
2021/03/29 00:59:33;;;;;;;8.63;3.88;;;;;;;11.10;45.85;102333.69;345464;28;23706;-63
2021/03/29 00:59:44;;;;;;;8.25;3.80;;;;;;;11.12;45.58;102334.50;346887;28;1325;-62
2021/03/29 00:59:56;;;;;;;8.27;3.42;;;;;;;11.05;44.89;102335.56;348049;28;1179;-62
2021/03/29 01:00:18;;;;;;;6.43;3.15;;;;;;;10.98;45.29;102329.53;349005;28;1696;-62
2021/03/29 01:00:36;;;;;;;9.07;3.58;;;;;;;11.00;44.56;102334.78;345288;28;71808;-62
2021/03/29 01:01:16;;;;;;;9.55;3.70;;;;;;;10.86;45.25;102338.63;344019;28;71814;-61
2021/03/29 01:01:43;;;;;;;10.60;4.10;;;;;;;10.92;44.62;102334.09;343924;28;72980;-62
2021/03/29 01:01:54;;;;;;;7.32;3.88;;;;;;;10.98;45.27;102337.47;343964;28;72334;-62
2021/03/29 01:02:06;;;;;;;8.38;3.95;;;;;;;11.01;45.07;102333.88;346258;28;1238;-63
2021/03/29 01:02:18;;;;;;;8.63;3.83;;;;;;;11.02;45.31;102336.50;346322;28;1171;-62
2021/03/29 01:02:30;;;;;;;9.15;3.83;;;;;;;11.10;45.20;102332.78;347397;28;1765;-63
2021/03/29 01:02:41;;;;;;;9.50;3.95;;;;;;;11.11;45.34;102340.69;348062;28;1098;-63
2021/03/29 01:02:53;;;;;;;9.43;3.95;;;;;;;11.16;45.27;102340.59;349106;28;1316;-62
2021/03/29 01:03:15;;;;;;;10.20;3.75;;;;;;;11.09;44.78;102334.59;349108;28;1180;-62
2021/03/29 01:03:32;;;;;;;11.65;3.90;;;;;;;11.07;46.03;102339.03;345338;28;71485;-63
2021/03/29 01:03:49;;;;;;;12.10;4.00;;;;;;;11.08;45.02;102337.25;344521;28;94892;-63
2021/03/29 01:04:01;;;;;;;10.68;3.88;;;;;;;11.12;45.24;102338.94;345253;28;71854;-62
2021/03/29 01:04:14;;;;;;;9.40;3.90;;;;;;;11.13;46.16;102338.88;347751;28;1197;-62
2021/03/29 01:04:25;;;;;;;8.27;3.83;;;;;;;11.15;45.86;102345.00;347813;28;1140;-62
2021/03/29 01:04:36;;;;;;;6.90;3.58;;;;;;;11.11;45.20;102331.91;347695;28;1109;-63
2021/03/29 01:04:47;;;;;;;7.60;3.63;;;;;;;11.11;46.02;102339.84;347707;28;1193;-62
2021/03/29 01:04:59;;;;;;;8.68;3.88;;;;;;;11.09;45.95;102331.09;347617;28;1169;-63
2021/03/29 01:05:18;;;;;;;8.45;3.90;;;;;;;11.07;45.84;102343.44;347748;28;1081;-63
2021/03/29 01:05:29;;;;;;;9.52;4.10;;;;;;;11.09;46.04;102342.50;346720;28;71948;-62
2021/03/29 01:05:42;;;;;;;9.44;3.98;;;;;;;11.12;45.04;102341.56;347724;28;1034;-63
2021/03/29 01:06:13;;;;;;;8.85;3.90;;;;;;;11.20;46.08;102342.25;347620;28;1150;-62
2021/03/29 01:06:28;;;;;;;8.60;4.00;;;;;;;11.20;46.23;102337.84;345329;28;71538;-63
2021/03/29 01:06:42;;;;;;;8.00;4.30;;;;;;;11.19;45.20;102335.22;344711;28;48995;-62
2021/03/29 01:06:54;;;;;;;9.80;4.40;;;;;;;11.20;45.40;102336.97;345509;28;22706;-62
2021/03/29 01:07:06;;;;;;;9.93;4.32;;;;;;;11.23;46.27;102336.03;346361;28;1136;-63
2021/03/29 01:07:17;;;;;;;9.77;4.05;;;;;;;11.24;45.47;102336.00;346335;28;1888;-63
2021/03/29 01:07:29;;;;;;;10.55;4.00;;;;;;;11.23;45.12;102339.53;346368;28;1088;-62
2021/03/29 01:07:43;;;;;;;11.80;4.20;;;;;;;11.25;45.28;102336.84;347454;28;1242;-64
2021/03/29 01:07:56;;;;;;;10.35;4.35;;;;;;;11.22;46.12;102340.44;346884;28;23784;-63
2021/03/29 01:08:09;;;;;;;8.88;4.15;;;;;;;11.22;45.45;102336.94;346923;28;25177;-62
2021/03/29 01:08:21;;;;;;;8.63;3.95;;;;;;;11.22;46.66;102337.78;346324;28;1129;-63
2021/03/29 01:08:36;;;;;;;9.40;3.97;;;;;;;11.24;45.84;102338.63;346450;28;1078;-63
2021/03/29 01:08:51;;;;;;;8.93;4.00;;;;;;;11.24;46.35;102337.75;345446;28;24137;-63
2021/03/29 01:09:18;;;;;;;7.57;3.97;;;;;;;11.25;46.63;102336.84;343974;28;71881;-62
2021/03/29 01:11:23;;;;;;;8.02;3.88;;;;;;;11.12;46.48;102336.28;341392;28;75519;-61
2021/03/29 01:12:42;;;;;;;;;;;;;;;;;;;;;
2021/03/29 01:13:21;;;;;;;7.95;3.83;;;;;;;11.24;45.63;102337.75;350889;28;34260;-63
2021/03/29 01:14:14;;;;;;;9.85;3.78;;;;;;;11.23;45.47;102333.38;347026;28;34255;-65
2021/03/29 01:14:50;;;;;;;9.66;4.14;;;;;;;11.22;46.42;102336.94;346610;28;34516;-63
2021/03/29 01:15:02;;;;;;;8.43;3.80;;;;;;;11.21;46.44;102341.38;345336;28;72319;-63
2021/03/29 01:15:15;;;;;;;8.73;3.67;;;;;;;11.17;44.93;102340.56;347621;28;1011;-63
2021/03/29 01:15:27;;;;;;;9.65;3.75;;;;;;;11.10;45.62;102335.44;346566;28;26081;-63
2021/03/29 01:15:40;;;;;;;8.73;3.67;;;;;;;11.12;45.73;102336.28;346354;28;1145;-63
2021/03/29 01:15:55;;;;;;;7.80;3.55;;;;;;;11.14;46.27;102338.00;346330;28;1858;-63
2021/03/29 01:16:08;;;;;;;7.97;3.60;;;;;;;11.11;45.27;102340.69;346050;28;49028;-63
2021/03/29 01:16:22;;;;;;;8.40;3.63;;;;;;;11.11;45.27;102334.53;347624;28;1342;-63
2021/03/29 01:16:41;;;;;;;8.02;3.75;;;;;;;11.14;45.64;102338.00;346931;28;25394;-62
2021/03/29 01:16:58;;;;;;;10.80;3.90;;;;;;;11.20;45.90;102342.25;345314;28;71063;-63
2021/03/29 01:17:23;;;;;;;10.45;3.78;;;;;;;11.18;45.56;102330.84;345185;28;70898;-62
2021/03/29 01:17:37;;;;;;;8.40;3.70;;;;;;;11.18;46.44;102336.13;343138;28;94290;-63
2021/03/29 01:17:50;;;;;;;8.70;3.70;;;;;;;11.20;45.79;102334.31;346380;28;1049;-64
2021/03/29 01:18:02;;;;;;;10.77;3.80;;;;;;;11.21;46.23;102336.06;345747;28;1078;-65
2021/03/29 01:18:16;;;;;;;10.27;3.70;;;;;;;11.23;46.30;102333.38;345020;28;1090;-63
2021/03/29 01:18:28;;;;;;;8.93;3.70;;;;;;;11.21;46.23;102336.06;343394;28;48082;-63
2021/03/29 01:18:42;;;;;;;8.35;3.75;;;;;;;11.20;46.38;102339.63;344931;28;1213;-63
2021/03/29 01:18:57;;;;;;;8.48;3.78;;;;;;;11.17;46.49;102337.91;344161;28;24995;-63
2021/03/29 01:19:14;;;;;;;7.85;3.78;;;;;;;11.16;46.64;102335.31;341263;28;71119;-63
2021/03/29 01:19:47;;;;;;;7.40;3.70;;;;;;;11.12;45.76;102337.16;341850;28;71914;-62
2021/03/29 01:20:01;;;;;;;7.72;3.42;;;;;;;11.01;44.23;102337.41;342497;28;71309;-63
2021/03/29 01:20:40;;;;;;;7.50;3.28;;;;;;;10.96;45.69;102336.66;345005;28;1200;-63
2021/03/29 01:21:16;;;;;;;7.90;3.60;;;;;;;11.05;46.32;102340.00;342460;28;72767;-63
2021/03/29 01:21:32;;;;;;;7.90;3.60;;;;;;;11.08;46.43;102342.56;343909;28;72860;-63
2021/03/29 01:21:43;;;;;;;10.13;3.83;;;;;;;11.06;45.75;102334.66;343833;28;73004;-63
2021/03/29 01:22:03;;;;;;;10.32;3.83;;;;;;;11.09;46.65;102337.22;345389;28;26471;-63
2021/03/29 01:22:21;;;;;;;8.10;3.55;;;;;;;11.11;46.37;102334.53;343895;28;73239;-63
2021/03/29 01:22:39;;;;;;;8.70;3.53;;;;;;;11.13;46.19;102338.03;343974;28;71560;-62
2021/03/29 01:22:54;;;;;;;9.23;3.80;;;;;;;11.12;46.08;102338.94;343946;28;70235;-63
2021/03/29 01:23:07;;;;;;;10.30;3.90;;;;;;;11.09;45.49;102333.72;344727;28;47053;-63
2021/03/29 01:23:20;;;;;;;10.18;3.70;;;;;;;11.08;46.18;102335.47;346337;28;1141;-62
2021/03/29 01:23:32;;;;;;;8.43;3.47;;;;;;;11.08;46.05;102337.25;345576;28;23839;-63
2021/03/29 01:23:44;;;;;;;8.38;3.45;;;;;;;11.08;46.50;102338.13;346261;28;1089;-63